sensor_id;sensor_type;location;lat;lon;timestamp;pressure;altitude;pressure_sealevel;temperature;humidity
23635;BME280;11994;51.038;16.974;2023-03-01T00:01:00;101610.37;;;0.05;70.71
23635;BME280;11994;51.038;16.974;2023-03-01T00:03:26;101615.70;;;0.05;70.46
23635;BME280;11994;51.038;16.974;2023-03-01T00:05:51;101616.31;;;0.03;70.42
23635;BME280;11994;51.038;16.974;2023-03-01T00:08:16;101620.99;;;-0.00;70.40
23635;BME280;11994;51.038;16.974;2023-03-01T00:10:41;101624.39;;;-0.05;70.48
23635;BME280;11994;51.038;16.974;2023-03-01T00:13:07;101618.95;;;-0.12;70.36
23635;BME280;11994;51.038;16.974;2023-03-01T00:15:32;101617.70;;;-0.17;70.61
23635;BME280;11994;51.038;16.974;2023-03-01T00:17:59;101617.03;;;-0.17;70.73
23635;BME280;11994;51.038;16.974;2023-03-01T00:20:25;101613.95;;;-0.12;70.67
23635;BME280;11994;51.038;16.974;2023-03-01T00:22:50;101612.66;;;-0.10;70.96
23635;BME280;11994;51.038;16.974;2023-03-01T00:25:16;101609.51;;;-0.12;70.75
23635;BME280;11994;51.038;16.974;2023-03-01T00:27:41;101601.30;;;-0.18;70.82
23635;BME280;11994;51.038;16.974;2023-03-01T00:30:07;101603.80;;;-0.20;70.97
23635;BME280;11994;51.038;16.974;2023-03-01T00:32:33;101602.34;;;-0.18;71.10
23635;BME280;11994;51.038;16.974;2023-03-01T00:34:58;101602.64;;;-0.19;70.96
23635;BME280;11994;51.038;16.974;2023-03-01T00:37:24;101600.38;;;-0.28;70.94
23635;BME280;11994;51.038;16.974;2023-03-01T00:39:49;101596.97;;;-0.31;70.99
23635;BME280;11994;51.038;16.974;2023-03-01T00:42:15;101595.73;;;-0.32;71.36
23635;BME280;11994;51.038;16.974;2023-03-01T00:44:41;101593.06;;;-0.30;71.45
23635;BME280;11994;51.038;16.974;2023-03-01T00:47:06;101587.77;;;-0.29;71.36
23635;BME280;11994;51.038;16.974;2023-03-01T00:49:32;101586.81;;;-0.32;71.19
23635;BME280;11994;51.038;16.974;2023-03-01T00:51:57;101577.10;;;-0.30;71.31
23635;BME280;11994;51.038;16.974;2023-03-01T00:54:23;101570.58;;;-0.34;71.15
23635;BME280;11994;51.038;16.974;2023-03-01T00:56:48;101563.95;;;-0.44;71.08
23635;BME280;11994;51.038;16.974;2023-03-01T00:59:14;101563.97;;;-0.47;71.28
23635;BME280;11994;51.038;16.974;2023-03-01T01:01:39;101566.95;;;-0.54;71.04
23635;BME280;11994;51.038;16.974;2023-03-01T01:04:10;101569.01;;;-0.58;71.31
23635;BME280;11994;51.038;16.974;2023-03-01T01:06:39;101565.16;;;-0.60;71.41
23635;BME280;11994;51.038;16.974;2023-03-01T01:09:08;101561.80;;;-0.62;71.54
23635;BME280;11994;51.038;16.974;2023-03-01T01:11:34;101557.89;;;-0.61;71.70
23635;BME280;11994;51.038;16.974;2023-03-01T01:14:01;101562.57;;;-0.60;71.58
23635;BME280;11994;51.038;16.974;2023-03-01T01:16:28;101560.26;;;-0.62;71.60
23635;BME280;11994;51.038;16.974;2023-03-01T01:18:55;101562.55;;;-0.68;71.72
23635;BME280;11994;51.038;16.974;2023-03-01T01:21:23;101562.52;;;-0.69;71.78
23635;BME280;11994;51.038;16.974;2023-03-01T01:23:50;101552.77;;;-0.68;71.81
23635;BME280;11994;51.038;16.974;2023-03-01T01:26:19;101552.64;;;-0.71;71.64
23635;BME280;11994;51.038;16.974;2023-03-01T01:28:47;101551.45;;;-0.78;71.59
23635;BME280;11994;51.038;16.974;2023-03-01T01:31:13;101545.71;;;-0.84;71.71
23635;BME280;11994;51.038;16.974;2023-03-01T01:33:38;101543.34;;;-0.87;71.78
23635;BME280;11994;51.038;16.974;2023-03-01T01:36:05;101546.20;;;-0.92;71.79
23635;BME280;11994;51.038;16.974;2023-03-01T01:38:31;101546.70;;;-0.92;71.95
23635;BME280;11994;51.038;16.974;2023-03-01T01:40:56;101547.49;;;-0.90;72.22
23635;BME280;11994;51.038;16.974;2023-03-01T01:43:35;101543.83;;;-0.95;71.96
23635;BME280;11994;51.038;16.974;2023-03-01T01:46:15;101547.49;;;-1.05;72.05
23635;BME280;11994;51.038;16.974;2023-03-01T01:51:47;101530.01;;;-1.13;72.34
23635;BME280;11994;51.038;16.974;2023-03-01T01:54:22;101531.01;;;-1.10;72.59
23635;BME280;11994;51.038;16.974;2023-03-01T01:56:54;101524.72;;;-1.05;72.74
23635;BME280;11994;51.038;16.974;2023-03-01T01:59:21;101525.38;;;-1.01;72.79
23635;BME280;11994;51.038;16.974;2023-03-01T02:01:51;101523.42;;;-0.95;73.14
23635;BME280;11994;51.038;16.974;2023-03-01T02:04:16;101520.68;;;-0.87;73.08
23635;BME280;11994;51.038;16.974;2023-03-01T02:06:53;101516.80;;;-0.97;72.36
23635;BME280;11994;51.038;16.974;2023-03-01T02:09:23;101521.80;;;-1.08;72.47
23635;BME280;11994;51.038;16.974;2023-03-01T02:11:49;101522.80;;;-1.09;72.71
23635;BME280;11994;51.038;16.974;2023-03-01T02:14:16;101523.69;;;-1.16;72.63
23635;BME280;11994;51.038;16.974;2023-03-01T02:16:42;101526.23;;;-1.24;72.88
23635;BME280;11994;51.038;16.974;2023-03-01T02:19:09;101526.23;;;-1.32;72.59
23635;BME280;11994;51.038;16.974;2023-03-01T02:27:02;101512.02;;;-1.46;72.49
23635;BME280;11994;51.038;16.974;2023-03-01T02:29:28;101511.58;;;-1.52;72.88
23635;BME280;11994;51.038;16.974;2023-03-01T02:31:56;101519.61;;;-1.49;73.11
23635;BME280;11994;51.038;16.974;2023-03-01T02:34:24;101520.02;;;-1.55;73.18
23635;BME280;11994;51.038;16.974;2023-03-01T02:37:01;101521.48;;;-1.56;73.40
23635;BME280;11994;51.038;16.974;2023-03-01T02:39:30;101523.88;;;-1.60;73.45
23635;BME280;11994;51.038;16.974;2023-03-01T02:41:57;101521.88;;;-1.59;73.59
23635;BME280;11994;51.038;16.974;2023-03-01T02:44:24;101519.86;;;-1.58;73.70
23635;BME280;11994;51.038;16.974;2023-03-01T02:46:52;101525.54;;;-1.54;73.69
23635;BME280;11994;51.038;16.974;2023-03-01T02:49:29;101528.20;;;-1.56;73.50
23635;BME280;11994;51.038;16.974;2023-03-01T02:55:34;101536.37;;;-1.75;73.72
23635;BME280;11994;51.038;16.974;2023-03-01T02:57:43;101538.58;;;-1.68;74.02
23635;BME280;11994;51.038;16.974;2023-03-01T03:00:19;101540.48;;;-1.61;74.34
23635;BME280;11994;51.038;16.974;2023-03-01T03:02:49;101537.88;;;-1.50;74.40
23635;BME280;11994;51.038;16.974;2023-03-01T03:05:18;101540.28;;;-1.43;74.35
23635;BME280;11994;51.038;16.974;2023-03-01T03:07:46;101537.73;;;-1.39;74.34
23635;BME280;11994;51.038;16.974;2023-03-01T03:10:15;101542.35;;;-1.36;74.18
23635;BME280;11994;51.038;16.974;2023-03-01T03:12:41;101547.00;;;-1.43;73.77
23635;BME280;11994;51.038;16.974;2023-03-01T03:15:08;101541.35;;;-1.57;73.46
23635;BME280;11994;51.038;16.974;2023-03-01T03:17:39;101536.53;;;-1.72;73.40
23635;BME280;11994;51.038;16.974;2023-03-01T03:20:06;101526.65;;;-1.85;73.53
23635;BME280;11994;51.038;16.974;2023-03-01T03:22:37;101523.98;;;-1.90;73.87
23635;BME280;11994;51.038;16.974;2023-03-01T03:25:03;101526.17;;;-1.91;74.11
23635;BME280;11994;51.038;16.974;2023-03-01T03:27:28;101528.17;;;-1.85;74.26
23635;BME280;11994;51.038;16.974;2023-03-01T03:29:53;101522.57;;;-1.77;74.35
23635;BME280;11994;51.038;16.974;2023-03-01T03:32:19;101521.59;;;-1.65;74.65
23635;BME280;11994;51.038;16.974;2023-03-01T03:34:44;101520.61;;;-1.57;74.65
23635;BME280;11994;51.038;16.974;2023-03-01T03:37:10;101512.63;;;-1.52;74.66
23635;BME280;11994;51.038;16.974;2023-03-01T03:39:55;101507.70;;;-1.47;74.63
23635;BME280;11994;51.038;16.974;2023-03-01T03:42:21;101503.81;;;-1.42;74.76
23635;BME280;11994;51.038;16.974;2023-03-01T03:44:47;101502.93;;;-1.42;74.31
23635;BME280;11994;51.038;16.974;2023-03-01T03:47:12;101501.81;;;-1.52;74.19
23635;BME280;11994;51.038;16.974;2023-03-01T03:49:38;101498.81;;;-1.53;74.14
23635;BME280;11994;51.038;16.974;2023-03-01T03:52:03;101500.48;;;-1.58;74.03
23635;BME280;11994;51.038;16.974;2023-03-01T03:54:29;101498.04;;;-1.66;73.98
23635;BME280;11994;51.038;16.974;2023-03-01T03:56:54;101497.83;;;-1.75;74.05
23635;BME280;11994;51.038;16.974;2023-03-01T03:59:19;101490.81;;;-1.78;74.09
23635;BME280;11994;51.038;16.974;2023-03-01T04:01:45;101494.41;;;-1.81;74.38
23635;BME280;11994;51.038;16.974;2023-03-01T04:04:10;101497.88;;;-1.81;74.39
23635;BME280;11994;51.038;16.974;2023-03-01T04:06:35;101490.46;;;-1.82;74.41
23635;BME280;11994;51.038;16.974;2023-03-01T04:09:01;101483.83;;;-1.81;74.63
23635;BME280;11994;51.038;16.974;2023-03-01T04:11:27;101482.20;;;-1.82;74.59
23635;BME280;11994;51.038;16.974;2023-03-01T04:13:55;101481.34;;;-1.86;74.70
23635;BME280;11994;51.038;16.974;2023-03-01T04:16:21;101477.50;;;-1.84;74.77
23635;BME280;11994;51.038;16.974;2023-03-01T04:18:47;101475.98;;;-1.80;74.79
23635;BME280;11994;51.038;16.974;2023-03-01T04:21:12;101479.20;;;-1.77;74.91
23635;BME280;11994;51.038;16.974;2023-03-01T04:23:38;101479.47;;;-1.79;74.94
23635;BME280;11994;51.038;16.974;2023-03-01T04:26:04;101476.75;;;-1.78;74.99
23635;BME280;11994;51.038;16.974;2023-03-01T04:28:32;101478.38;;;-1.76;75.04
23635;BME280;11994;51.038;16.974;2023-03-01T04:31:02;101483.27;;;-1.75;75.10
23635;BME280;11994;51.038;16.974;2023-03-01T04:33:39;101483.49;;;-1.73;74.96
23635;BME280;11994;51.038;16.974;2023-03-01T04:36:06;101488.09;;;-1.78;75.04
23635;BME280;11994;51.038;16.974;2023-03-01T04:38:34;101481.72;;;-1.85;74.99
23635;BME280;11994;51.038;16.974;2023-03-01T04:41:02;101484.25;;;-1.93;74.95
23635;BME280;11994;51.038;16.974;2023-03-01T04:43:28;101482.64;;;-1.99;75.29
23635;BME280;11994;51.038;16.974;2023-03-01T04:45:53;101482.80;;;-1.98;75.58
23635;BME280;11994;51.038;16.974;2023-03-01T04:48:19;101479.11;;;-1.97;75.42
23635;BME280;11994;51.038;16.974;2023-03-01T04:50:44;101482.61;;;-2.02;75.40
23635;BME280;11994;51.038;16.974;2023-03-01T04:53:09;101482.22;;;-2.07;75.37
23635;BME280;11994;51.038;16.974;2023-03-01T04:55:35;101488.41;;;-2.10;75.34
23635;BME280;11994;51.038;16.974;2023-03-01T04:58:00;101488.59;;;-2.06;75.52
23635;BME280;11994;51.038;16.974;2023-03-01T05:00:25;101485.73;;;-2.05;75.60
23635;BME280;11994;51.038;16.974;2023-03-01T05:02:59;101490.17;;;-2.06;75.76
23635;BME280;11994;51.038;16.974;2023-03-01T05:05:37;101488.06;;;-2.03;75.71
23635;BME280;11994;51.038;16.974;2023-03-01T05:08:07;101487.46;;;-2.01;75.87
23635;BME280;11994;51.038;16.974;2023-03-01T05:10:35;101488.79;;;-1.95;75.94
23635;BME280;11994;51.038;16.974;2023-03-01T05:13:02;101489.08;;;-1.93;75.87
23635;BME280;11994;51.038;16.974;2023-03-01T05:15:30;101489.02;;;-1.94;75.66
23635;BME280;11994;51.038;16.974;2023-03-01T05:17:58;101492.61;;;-1.94;75.76
23635;BME280;11994;51.038;16.974;2023-03-01T05:20:25;101494.92;;;-1.93;75.72
23635;BME280;11994;51.038;16.974;2023-03-01T05:22:52;101488.42;;;-1.88;75.77
23635;BME280;11994;51.038;16.974;2023-03-01T05:25:20;101487.52;;;-1.86;75.82
23635;BME280;11994;51.038;16.974;2023-03-01T05:27:46;101485.54;;;-1.81;76.12
23635;BME280;11994;51.038;16.974;2023-03-01T05:30:12;101484.69;;;-1.73;76.19
23635;BME280;11994;51.038;16.974;2023-03-01T05:32:51;101485.22;;;-1.69;76.06
23635;BME280;11994;51.038;16.974;2023-03-01T05:35:21;101489.34;;;-1.65;76.07
23635;BME280;11994;51.038;16.974;2023-03-01T05:37:48;101489.88;;;-1.61;76.03
23635;BME280;11994;51.038;16.974;2023-03-01T05:40:17;101495.60;;;-1.60;75.99
23635;BME280;11994;51.038;16.974;2023-03-01T05:42:56;101494.27;;;-1.59;75.98
23635;BME280;11994;51.038;16.974;2023-03-01T05:45:23;101488.58;;;-1.64;75.76
23635;BME280;11994;51.038;16.974;2023-03-01T05:47:50;101491.03;;;-1.66;75.71
23635;BME280;11994;51.038;16.974;2023-03-01T05:50:24;101491.42;;;-1.72;75.43
23635;BME280;11994;51.038;16.974;2023-03-01T05:52:59;101493.24;;;-1.81;75.31
23635;BME280;11994;51.038;16.974;2023-03-01T05:55:26;101492.17;;;-1.89;75.13
23635;BME280;11994;51.038;16.974;2023-03-01T05:57:51;101493.55;;;-1.89;75.54
23635;BME280;11994;51.038;16.974;2023-03-01T06:00:18;101502.08;;;-1.82;75.71
23635;BME280;11994;51.038;16.974;2023-03-01T06:02:44;101506.90;;;-1.75;75.80
23635;BME280;11994;51.038;16.974;2023-03-01T06:05:13;101510.32;;;-1.75;75.63
23635;BME280;11994;51.038;16.974;2023-03-01T06:07:39;101506.36;;;-1.86;75.29
23635;BME280;11994;51.038;16.974;2023-03-01T06:10:06;101506.29;;;-1.98;75.32
23635;BME280;11994;51.038;16.974;2023-03-01T06:12:36;101505.60;;;-2.06;75.51
23635;BME280;11994;51.038;16.974;2023-03-01T06:15:03;101504.09;;;-2.05;75.86
23635;BME280;11994;51.038;16.974;2023-03-01T06:17:31;101502.41;;;-1.97;76.21
23635;BME280;11994;51.038;16.974;2023-03-01T06:19:56;101502.39;;;-1.90;76.10
23635;BME280;11994;51.038;16.974;2023-03-01T06:22:22;101500.49;;;-1.87;76.05
23635;BME280;11994;51.038;16.974;2023-03-01T06:24:47;101504.16;;;-1.82;76.22
23635;BME280;11994;51.038;16.974;2023-03-01T06:27:13;101508.15;;;-1.74;76.17
23635;BME280;11994;51.038;16.974;2023-03-01T06:29:38;101506.10;;;-1.66;76.27
23635;BME280;11994;51.038;16.974;2023-03-01T06:32:04;101506.27;;;-1.59;76.36
23635;BME280;11994;51.038;16.974;2023-03-01T06:34:30;101502.74;;;-1.50;76.47
23635;BME280;11994;51.038;16.974;2023-03-01T06:36:56;101500.83;;;-1.43;76.49
23635;BME280;11994;51.038;16.974;2023-03-01T06:39:21;101499.23;;;-1.33;76.73
23635;BME280;11994;51.038;16.974;2023-03-01T06:41:46;101493.30;;;-1.28;76.49
23635;BME280;11994;51.038;16.974;2023-03-01T06:44:12;101493.27;;;-1.25;76.46
23635;BME280;11994;51.038;16.974;2023-03-01T06:46:39;101496.02;;;-1.25;76.36
23635;BME280;11994;51.038;16.974;2023-03-01T06:49:04;101494.27;;;-1.29;76.36
23635;BME280;11994;51.038;16.974;2023-03-01T06:51:34;101491.33;;;-1.33;76.33
23635;BME280;11994;51.038;16.974;2023-03-01T06:53:59;101492.12;;;-1.35;76.37
23635;BME280;11994;51.038;16.974;2023-03-01T06:56:25;101486.55;;;-1.36;76.53
23635;BME280;11994;51.038;16.974;2023-03-01T06:58:50;101487.79;;;-1.36;76.33
23635;BME280;11994;51.038;16.974;2023-03-01T07:01:15;101482.05;;;-1.33;76.56
23635;BME280;11994;51.038;16.974;2023-03-01T07:03:41;101481.66;;;-1.27;76.80
23635;BME280;11994;51.038;16.974;2023-03-01T07:06:09;101479.03;;;-1.21;77.07
23635;BME280;11994;51.038;16.974;2023-03-01T07:08:34;101478.96;;;-1.15;77.42
23635;BME280;11994;51.038;16.974;2023-03-01T07:11:00;101477.88;;;-1.04;77.50
23635;BME280;11994;51.038;16.974;2023-03-01T07:13:27;101477.23;;;-0.95;77.43
23635;BME280;11994;51.038;16.974;2023-03-01T07:15:53;101479.20;;;-0.85;77.63
23635;BME280;11994;51.038;16.974;2023-03-01T07:18:18;101478.46;;;-0.78;77.41
23635;BME280;11994;51.038;16.974;2023-03-01T07:20:43;101479.92;;;-0.73;77.21
23635;BME280;11994;51.038;16.974;2023-03-01T07:23:09;101481.91;;;-0.66;77.16
23635;BME280;11994;51.038;16.974;2023-03-01T07:25:34;101482.90;;;-0.59;77.33
23635;BME280;11994;51.038;16.974;2023-03-01T07:28:00;101488.51;;;-0.53;77.26
23635;BME280;11994;51.038;16.974;2023-03-01T07:30:26;101491.23;;;-0.41;77.13
23635;BME280;11994;51.038;16.974;2023-03-01T07:32:56;101493.09;;;-0.29;77.26
23635;BME280;11994;51.038;16.974;2023-03-01T07:35:23;101496.30;;;-0.18;77.26
23635;BME280;11994;51.038;16.974;2023-03-01T07:37:49;101493.61;;;-0.08;77.34
23635;BME280;11994;51.038;16.974;2023-03-01T07:40:15;101487.82;;;0.02;77.41
23635;BME280;11994;51.038;16.974;2023-03-01T07:42:40;101482.05;;;0.12;77.14
23635;BME280;11994;51.038;16.974;2023-03-01T07:45:06;101482.02;;;0.12;77.00
23635;BME280;11994;51.038;16.974;2023-03-01T07:47:32;101481.35;;;0.16;77.02
23635;BME280;11994;51.038;16.974;2023-03-01T07:49:57;101483.10;;;0.30;77.20
23635;BME280;11994;51.038;16.974;2023-03-01T07:52:23;101479.66;;;0.43;77.13
23635;BME280;11994;51.038;16.974;2023-03-01T07:54:48;101474.87;;;0.44;76.69
23635;BME280;11994;51.038;16.974;2023-03-01T07:57:14;101472.39;;;0.43;76.68
23635;BME280;11994;51.038;16.974;2023-03-01T07:59:39;101466.11;;;0.54;76.91
23635;BME280;11994;51.038;16.974;2023-03-01T08:02:05;101463.34;;;0.77;77.15
23635;BME280;11994;51.038;16.974;2023-03-01T08:04:32;101456.91;;;0.99;77.03
23635;BME280;11994;51.038;16.974;2023-03-01T08:06:58;101454.79;;;1.17;76.86
23635;BME280;11994;51.038;16.974;2023-03-01T08:09:23;101449.36;;;1.29;76.60
23635;BME280;11994;51.038;16.974;2023-03-01T08:11:48;101446.15;;;1.26;76.09
23635;BME280;11994;51.038;16.974;2023-03-01T08:14:14;101444.54;;;1.35;76.32
23635;BME280;11994;51.038;16.974;2023-03-01T08:16:39;101440.61;;;1.41;76.12
23635;BME280;11994;51.038;16.974;2023-03-01T08:19:09;101431.00;;;1.47;75.96
23635;BME280;11994;51.038;16.974;2023-03-01T08:21:35;101427.27;;;1.59;76.26
23635;BME280;11994;51.038;16.974;2023-03-01T08:24:05;101424.62;;;1.74;76.01
23635;BME280;11994;51.038;16.974;2023-03-01T08:26:32;101422.81;;;1.86;75.90
23635;BME280;11994;51.038;16.974;2023-03-01T08:28:57;101424.54;;;1.93;75.46
23635;BME280;11994;51.038;16.974;2023-03-01T08:31:26;101426.08;;;2.03;75.49
23635;BME280;11994;51.038;16.974;2023-03-01T08:33:54;101427.52;;;2.11;75.22
23635;BME280;11994;51.038;16.974;2023-03-01T08:36:24;101432.02;;;2.23;74.93
23635;BME280;11994;51.038;16.974;2023-03-01T08:38:50;101425.49;;;2.30;75.06
23635;BME280;11994;51.038;16.974;2023-03-01T08:41:16;101427.48;;;2.44;74.76
23635;BME280;11994;51.038;16.974;2023-03-01T08:43:41;101432.17;;;2.51;74.64
23635;BME280;11994;51.038;16.974;2023-03-01T08:46:07;101434.55;;;2.62;74.50
23635;BME280;11994;51.038;16.974;2023-03-01T08:48:32;101439.79;;;2.70;73.71
23635;BME280;11994;51.038;16.974;2023-03-01T08:51:07;101438.58;;;2.70;73.05
23635;BME280;11994;51.038;16.974;2023-03-01T08:53:33;101433.83;;;2.66;72.04
23635;BME280;11994;51.038;16.974;2023-03-01T08:56:02;101441.50;;;2.57;72.28
23635;BME280;11994;51.038;16.974;2023-03-01T08:58:28;101443.11;;;2.65;72.77
23635;BME280;11994;51.038;16.974;2023-03-01T09:00:53;101439.27;;;2.83;72.65
23635;BME280;11994;51.038;16.974;2023-03-01T09:03:19;101437.48;;;2.92;72.27
23635;BME280;11994;51.038;16.974;2023-03-01T09:05:44;101445.17;;;2.90;71.93
23635;BME280;11994;51.038;16.974;2023-03-01T09:08:11;101450.13;;;2.93;72.08
23635;BME280;11994;51.038;16.974;2023-03-01T09:10:39;101446.45;;;2.98;71.58
23635;BME280;11994;51.038;16.974;2023-03-01T09:13:04;101447.15;;;2.98;71.47
23635;BME280;11994;51.038;16.974;2023-03-01T09:15:30;101444.02;;;3.10;70.95
23635;BME280;11994;51.038;16.974;2023-03-01T09:17:55;101441.98;;;3.18;70.31
23635;BME280;11994;51.038;16.974;2023-03-01T09:20:20;101441.46;;;3.24;70.22
23635;BME280;11994;51.038;16.974;2023-03-01T09:22:46;101439.20;;;3.31;69.47
23635;BME280;11994;51.038;16.974;2023-03-01T09:25:11;101438.26;;;3.35;67.84
23635;BME280;11994;51.038;16.974;2023-03-01T09:27:37;101434.48;;;3.35;68.27
23635;BME280;11994;51.038;16.974;2023-03-01T09:30:02;101429.49;;;3.43;68.04
23635;BME280;11994;51.038;16.974;2023-03-01T09:32:30;101429.90;;;3.46;67.86
23635;BME280;11994;51.038;16.974;2023-03-01T09:34:55;101427.59;;;3.50;66.26
23635;BME280;11994;51.038;16.974;2023-03-01T09:37:30;101422.46;;;3.46;66.41
23635;BME280;11994;51.038;16.974;2023-03-01T09:39:56;101425.19;;;3.37;67.00
23635;BME280;11994;51.038;16.974;2023-03-01T09:42:22;101424.14;;;3.37;67.31
23635;BME280;11994;51.038;16.974;2023-03-01T09:47:24;101422.42;;;3.51;66.77
23635;BME280;11994;51.038;16.974;2023-03-01T09:50:15;101421.89;;;3.37;66.37
23635;BME280;11994;51.038;16.974;2023-03-01T09:53:02;101420.73;;;3.45;67.25
23635;BME280;11994;51.038;16.974;2023-03-01T09:55:38;101415.37;;;3.59;66.35
23635;BME280;11994;51.038;16.974;2023-03-01T10:07:01;101414.38;;;3.69;65.98
23635;BME280;11994;51.038;16.974;2023-03-01T10:09:29;101410.86;;;3.81;65.33
23635;BME280;11994;51.038;16.974;2023-03-01T10:11:59;101409.15;;;3.89;65.75
23635;BME280;11994;51.038;16.974;2023-03-01T10:14:34;101407.91;;;3.95;64.55
23635;BME280;11994;51.038;16.974;2023-03-01T10:19:50;101401.77;;;3.99;64.74
23635;BME280;11994;51.038;16.974;2023-03-01T10:22:20;101402.96;;;3.90;64.96
23635;BME280;11994;51.038;16.974;2023-03-01T10:24:50;101396.30;;;4.02;65.06
23635;BME280;11994;51.038;16.974;2023-03-01T10:27:24;101394.64;;;4.13;63.93
23635;BME280;11994;51.038;16.974;2023-03-01T10:32:36;101385.52;;;4.07;64.71
23635;BME280;11994;51.038;16.974;2023-03-01T10:35:16;101381.07;;;4.10;64.90
23635;BME280;11994;51.038;16.974;2023-03-01T10:38:10;101383.45;;;4.24;65.19
23635;BME280;11994;51.038;16.974;2023-03-01T10:41:10;101382.28;;;4.42;64.81
23635;BME280;11994;51.038;16.974;2023-03-01T10:43:45;101382.80;;;4.34;63.79
23635;BME280;11994;51.038;16.974;2023-03-01T10:51:42;101374.86;;;4.11;64.06
23635;BME280;11994;51.038;16.974;2023-03-01T10:54:25;101370.62;;;4.31;64.48
23635;BME280;11994;51.038;16.974;2023-03-01T10:56:58;101364.54;;;4.47;63.19
23635;BME280;11994;51.038;16.974;2023-03-01T11:02:29;101356.82;;;4.69;61.50
23635;BME280;11994;51.038;16.974;2023-03-01T11:07:46;101353.02;;;4.80;62.66
23635;BME280;11994;51.038;16.974;2023-03-01T11:10:18;101347.41;;;4.94;62.13
23635;BME280;11994;51.038;16.974;2023-03-01T11:12:43;101348.08;;;4.93;60.51
23635;BME280;11994;51.038;16.974;2023-03-01T11:15:20;101348.96;;;4.94;60.73
23635;BME280;11994;51.038;16.974;2023-03-01T11:17:46;101348.13;;;4.96;61.38
23635;BME280;11994;51.038;16.974;2023-03-01T11:22:45;101341.23;;;4.98;61.42
23635;BME280;11994;51.038;16.974;2023-03-01T11:25:13;101335.73;;;5.11;61.42
23635;BME280;11994;51.038;16.974;2023-03-01T11:27:44;101334.80;;;5.17;61.44
23635;BME280;11994;51.038;16.974;2023-03-01T11:30:20;101332.22;;;5.28;60.11
23635;BME280;11994;51.038;16.974;2023-03-01T11:33:10;101331.30;;;5.37;61.09
23635;BME280;11994;51.038;16.974;2023-03-01T11:35:43;101327.54;;;5.51;59.38
23635;BME280;11994;51.038;16.974;2023-03-01T11:38:25;101329.92;;;5.48;60.59
23635;BME280;11994;51.038;16.974;2023-03-01T11:46:24;101330.21;;;5.44;60.49
23635;BME280;11994;51.038;16.974;2023-03-01T11:52:27;101323.02;;;5.62;60.64
23635;BME280;11994;51.038;16.974;2023-03-01T11:57:47;101312.66;;;5.87;57.27
23635;BME280;11994;51.038;16.974;2023-03-01T12:08:19;101305.63;;;5.94;59.48
23635;BME280;11994;51.038;16.974;2023-03-01T12:14:07;101298.31;;;5.92;58.87
23635;BME280;11994;51.038;16.974;2023-03-01T12:19:23;101297.76;;;5.90;58.27
23635;BME280;11994;51.038;16.974;2023-03-01T12:22:20;101294.92;;;5.85;58.37
23635;BME280;11994;51.038;16.974;2023-03-01T12:30:17;101293.83;;;5.72;58.50
23635;BME280;11994;51.038;16.974;2023-03-01T12:36:00;101291.86;;;5.79;58.10
23635;BME280;11994;51.038;16.974;2023-03-01T12:38:49;101289.04;;;5.87;56.78
23635;BME280;11994;51.038;16.974;2023-03-01T12:41:37;101285.51;;;5.95;56.39
23635;BME280;11994;51.038;16.974;2023-03-01T12:49:41;101272.25;;;6.05;56.80
23635;BME280;11994;51.038;16.974;2023-03-01T12:53:04;101269.14;;;6.06;56.67
23635;BME280;11994;51.038;16.974;2023-03-01T13:04:30;101250.65;;;6.14;55.64
23635;BME280;11994;51.038;16.974;2023-03-01T13:15:34;101248.63;;;6.05;54.54
23635;BME280;11994;51.038;16.974;2023-03-01T13:28:55;101240.96;;;6.17;53.18
23635;BME280;11994;51.038;16.974;2023-03-01T13:47:14;101226.54;;;6.33;50.79
23635;BME280;11994;51.038;16.974;2023-03-01T13:50:00;101220.42;;;6.29;48.92
23635;BME280;11994;51.038;16.974;2023-03-01T13:52:32;101219.66;;;6.23;49.59
23635;BME280;11994;51.038;16.974;2023-03-01T13:55:00;101221.01;;;6.20;49.44
23635;BME280;11994;51.038;16.974;2023-03-01T13:57:38;101217.23;;;6.21;49.61
23635;BME280;11994;51.038;16.974;2023-03-01T14:00:07;101213.40;;;6.22;49.49
23635;BME280;11994;51.038;16.974;2023-03-01T14:02:33;101211.70;;;6.25;49.08
23635;BME280;11994;51.038;16.974;2023-03-01T14:05:00;101209.29;;;6.28;48.96
23635;BME280;11994;51.038;16.974;2023-03-01T14:07:27;101205.48;;;6.29;48.50
23635;BME280;11994;51.038;16.974;2023-03-01T14:10:02;101201.48;;;6.30;47.50
23635;BME280;11994;51.038;16.974;2023-03-01T14:18:35;101198.23;;;6.32;47.98
23635;BME280;11994;51.038;16.974;2023-03-01T14:21:07;101198.04;;;6.31;48.22
23635;BME280;11994;51.038;16.974;2023-03-01T14:23:33;101191.10;;;6.32;48.35
23635;BME280;11994;51.038;16.974;2023-03-01T14:26:01;101191.28;;;6.33;48.02
23635;BME280;11994;51.038;16.974;2023-03-01T14:28:31;101187.41;;;6.31;48.06
23635;BME280;11994;51.038;16.974;2023-03-01T14:31:00;101180.28;;;6.29;48.03
23635;BME280;11994;51.038;16.974;2023-03-01T14:33:33;101175.42;;;6.28;48.37
23635;BME280;11994;51.038;16.974;2023-03-01T14:36:09;101171.59;;;6.27;48.11
23635;BME280;11994;51.038;16.974;2023-03-01T14:38:43;101166.54;;;6.26;48.05
23635;BME280;11994;51.038;16.974;2023-03-01T14:41:24;101162.52;;;6.25;48.00
23635;BME280;11994;51.038;16.974;2023-03-01T14:43:53;101158.88;;;6.25;47.42
23635;BME280;11994;51.038;16.974;2023-03-01T14:46:26;101154.19;;;6.25;46.96
23635;BME280;11994;51.038;16.974;2023-03-01T14:48:57;101152.80;;;6.24;46.40
23635;BME280;11994;51.038;16.974;2023-03-01T14:51:26;101152.30;;;6.26;47.34
23635;BME280;11994;51.038;16.974;2023-03-01T14:53:52;101150.23;;;6.27;47.12
23635;BME280;11994;51.038;16.974;2023-03-01T14:56:17;101150.92;;;6.27;47.00
23635;BME280;11994;51.038;16.974;2023-03-01T14:58:44;101149.00;;;6.27;47.18
23635;BME280;11994;51.038;16.974;2023-03-01T15:01:13;101145.55;;;6.27;46.99
23635;BME280;11994;51.038;16.974;2023-03-01T15:03:58;101146.74;;;6.26;47.42
23635;BME280;11994;51.038;16.974;2023-03-01T15:06:26;101148.45;;;6.23;47.54